sensor_id;sensor_type;location;lat;lon;timestamp;P1;durP1;ratioP1;P2;durP2;ratioP2
51995;SDS011;38010;53.264;6.592;2023-10-19T00:00:31;5.65;;;3.75;;
51995;SDS011;38010;53.264;6.592;2023-10-19T00:02:59;4.72;;;3.45;;
51995;SDS011;38010;53.264;6.592;2023-10-19T00:05:28;5.55;;;3.67;;
51995;SDS011;38010;53.264;6.592;2023-10-19T00:07:57;7.10;;;4.38;;
51995;SDS011;38010;53.264;6.592;2023-10-19T00:10:23;6.85;;;3.85;;
51995;SDS011;38010;53.264;6.592;2023-10-19T00:12:54;5.68;;;3.88;;
51995;SDS011;38010;53.264;6.592;2023-10-19T00:15:30;7.25;;;3.88;;
51995;SDS011;38010;53.264;6.592;2023-10-19T00:17:58;4.93;;;4.15;;
51995;SDS011;38010;53.264;6.592;2023-10-19T00:20:51;5.40;;;3.38;;
51995;SDS011;38010;53.264;6.592;2023-10-19T00:23:21;4.47;;;3.47;;
51995;SDS011;38010;53.264;6.592;2023-10-19T00:26:00;6.47;;;3.60;;
51995;SDS011;38010;53.264;6.592;2023-10-19T00:28:40;5.20;;;3.70;;
51995;SDS011;38010;53.264;6.592;2023-10-19T00:31:06;5.80;;;3.78;;
51995;SDS011;38010;53.264;6.592;2023-10-19T00:33:37;4.18;;;3.58;;
51995;SDS011;38010;53.264;6.592;2023-10-19T00:36:04;6.07;;;4.10;;
51995;SDS011;38010;53.264;6.592;2023-10-19T00:38:36;6.05;;;3.58;;
51995;SDS011;38010;53.264;6.592;2023-10-19T00:41:03;6.28;;;3.55;;
51995;SDS011;38010;53.264;6.592;2023-10-19T00:43:37;6.05;;;3.97;;
51995;SDS011;38010;53.264;6.592;2023-10-19T00:46:13;5.97;;;4.03;;
51995;SDS011;38010;53.264;6.592;2023-10-19T00:48:51;5.35;;;3.88;;
51995;SDS011;38010;53.264;6.592;2023-10-19T00:51:25;7.85;;;4.50;;
51995;SDS011;38010;53.264;6.592;2023-10-19T00:53:53;5.38;;;3.70;;
51995;SDS011;38010;53.264;6.592;2023-10-19T00:56:19;5.63;;;4.15;;
51995;SDS011;38010;53.264;6.592;2023-10-19T00:58:49;6.22;;;3.92;;
51995;SDS011;38010;53.264;6.592;2023-10-19T01:01:35;5.60;;;4.05;;
51995;SDS011;38010;53.264;6.592;2023-10-19T01:04:05;5.32;;;4.15;;
51995;SDS011;38010;53.264;6.592;2023-10-19T01:06:32;5.28;;;3.67;;
51995;SDS011;38010;53.264;6.592;2023-10-19T01:08:58;6.38;;;4.43;;
51995;SDS011;38010;53.264;6.592;2023-10-19T01:11:24;6.22;;;4.10;;
51995;SDS011;38010;53.264;6.592;2023-10-19T01:13:53;5.80;;;3.90;;
51995;SDS011;38010;53.264;6.592;2023-10-19T01:16:20;4.97;;;4.25;;
51995;SDS011;38010;53.264;6.592;2023-10-19T01:18:48;5.40;;;3.83;;
51995;SDS011;38010;53.264;6.592;2023-10-19T01:21:18;4.63;;;3.72;;
51995;SDS011;38010;53.264;6.592;2023-10-19T01:23:46;6.20;;;4.40;;
51995;SDS011;38010;53.264;6.592;2023-10-19T01:26:13;5.07;;;3.75;;
51995;SDS011;38010;53.264;6.592;2023-10-19T01:28:46;4.95;;;3.75;;
51995;SDS011;38010;53.264;6.592;2023-10-19T01:31:14;5.75;;;3.78;;
51995;SDS011;38010;53.264;6.592;2023-10-19T01:33:55;5.17;;;3.73;;
51995;SDS011;38010;53.264;6.592;2023-10-19T01:36:23;5.43;;;3.60;;
51995;SDS011;38010;53.264;6.592;2023-10-19T01:38:49;5.80;;;5.07;;
51995;SDS011;38010;53.264;6.592;2023-10-19T01:41:19;5.88;;;4.00;;
51995;SDS011;38010;53.264;6.592;2023-10-19T01:43:46;5.25;;;3.78;;
51995;SDS011;38010;53.264;6.592;2023-10-19T01:46:15;7.20;;;4.35;;
51995;SDS011;38010;53.264;6.592;2023-10-19T01:48:49;6.50;;;4.20;;
51995;SDS011;38010;53.264;6.592;2023-10-19T01:51:19;7.13;;;4.32;;
51995;SDS011;38010;53.264;6.592;2023-10-19T01:53:46;5.80;;;3.90;;
51995;SDS011;38010;53.264;6.592;2023-10-19T01:56:12;5.72;;;4.30;;
51995;SDS011;38010;53.264;6.592;2023-10-19T01:58:40;6.10;;;4.45;;
51995;SDS011;38010;53.264;6.592;2023-10-19T02:01:06;5.75;;;4.40;;
51995;SDS011;38010;53.264;6.592;2023-10-19T02:03:39;6.55;;;3.80;;
51995;SDS011;38010;53.264;6.592;2023-10-19T02:06:09;7.90;;;4.93;;
51995;SDS011;38010;53.264;6.592;2023-10-19T02:08:41;6.60;;;4.38;;
51995;SDS011;38010;53.264;6.592;2023-10-19T02:11:09;5.97;;;4.43;;
51995;SDS011;38010;53.264;6.592;2023-10-19T02:13:44;6.35;;;4.50;;
51995;SDS011;38010;53.264;6.592;2023-10-19T02:16:15;6.00;;;4.05;;
51995;SDS011;38010;53.264;6.592;2023-10-19T02:18:44;6.60;;;4.85;;
51995;SDS011;38010;53.264;6.592;2023-10-19T02:21:10;5.40;;;3.95;;
51995;SDS011;38010;53.264;6.592;2023-10-19T02:23:40;5.63;;;4.60;;
51995;SDS011;38010;53.264;6.592;2023-10-19T02:26:09;6.28;;;4.05;;
51995;SDS011;38010;53.264;6.592;2023-10-19T02:28:38;5.72;;;4.30;;
51995;SDS011;38010;53.264;6.592;2023-10-19T02:31:05;6.68;;;4.72;;
51995;SDS011;38010;53.264;6.592;2023-10-19T02:33:44;5.75;;;4.55;;
51995;SDS011;38010;53.264;6.592;2023-10-19T02:36:14;5.65;;;4.28;;
51995;SDS011;38010;53.264;6.592;2023-10-19T02:38:44;5.35;;;4.25;;
51995;SDS011;38010;53.264;6.592;2023-10-19T02:41:17;4.75;;;3.63;;
51995;SDS011;38010;53.264;6.592;2023-10-19T02:43:47;5.40;;;4.05;;
51995;SDS011;38010;53.264;6.592;2023-10-19T02:46:26;6.38;;;4.25;;
51995;SDS011;38010;53.264;6.592;2023-10-19T02:48:52;4.93;;;3.80;;
51995;SDS011;38010;53.264;6.592;2023-10-19T02:51:18;5.65;;;4.25;;
51995;SDS011;38010;53.264;6.592;2023-10-19T02:53:44;5.57;;;4.35;;
51995;SDS011;38010;53.264;6.592;2023-10-19T02:56:14;4.80;;;3.63;;
51995;SDS011;38010;53.264;6.592;2023-10-19T02:58:44;6.15;;;4.45;;
51995;SDS011;38010;53.264;6.592;2023-10-19T03:01:15;4.45;;;3.15;;
51995;SDS011;38010;53.264;6.592;2023-10-19T03:03:45;6.28;;;4.43;;
51995;SDS011;38010;53.264;6.592;2023-10-19T03:06:11;5.75;;;3.90;;
51995;SDS011;38010;53.264;6.592;2023-10-19T03:08:37;6.85;;;4.03;;
51995;SDS011;38010;53.264;6.592;2023-10-19T03:11:03;5.32;;;3.70;;
51995;SDS011;38010;53.264;6.592;2023-10-19T03:13:30;5.32;;;3.60;;
51995;SDS011;38010;53.264;6.592;2023-10-19T03:15:59;4.63;;;3.22;;
51995;SDS011;38010;53.264;6.592;2023-10-19T03:18:32;4.78;;;3.72;;
51995;SDS011;38010;53.264;6.592;2023-10-19T03:21:00;4.82;;;3.63;;
51995;SDS011;38010;53.264;6.592;2023-10-19T03:23:26;5.38;;;3.83;;
51995;SDS011;38010;53.264;6.592;2023-10-19T03:25:56;4.38;;;3.55;;
51995;SDS011;38010;53.264;6.592;2023-10-19T03:28:41;4.95;;;3.97;;
51995;SDS011;38010;53.264;6.592;2023-10-19T03:31:08;4.28;;;3.53;;
51995;SDS011;38010;53.264;6.592;2023-10-19T03:33:38;4.22;;;3.10;;
51995;SDS011;38010;53.264;6.592;2023-10-19T03:36:05;5.38;;;3.28;;
51995;SDS011;38010;53.264;6.592;2023-10-19T03:38:38;3.97;;;2.80;;
51995;SDS011;38010;53.264;6.592;2023-10-19T03:41:06;4.65;;;3.55;;
51995;SDS011;38010;53.264;6.592;2023-10-19T03:43:33;3.70;;;3.10;;
51995;SDS011;38010;53.264;6.592;2023-10-19T03:46:03;3.83;;;3.40;;
51995;SDS011;38010;53.264;6.592;2023-10-19T03:48:49;5.80;;;3.78;;
51995;SDS011;38010;53.264;6.592;2023-10-19T03:51:15;4.43;;;3.08;;
51995;SDS011;38010;53.264;6.592;2023-10-19T03:53:42;5.68;;;3.67;;
51995;SDS011;38010;53.264;6.592;2023-10-19T03:56:19;3.00;;;2.50;;
51995;SDS011;38010;53.264;6.592;2023-10-19T03:58:46;3.78;;;2.83;;
51995;SDS011;38010;53.264;6.592;2023-10-19T04:01:15;4.03;;;2.83;;
51995;SDS011;38010;53.264;6.592;2023-10-19T04:03:42;4.20;;;2.88;;
51995;SDS011;38010;53.264;6.592;2023-10-19T04:06:09;4.93;;;2.75;;
51995;SDS011;38010;53.264;6.592;2023-10-19T04:08:41;2.92;;;2.38;;
51995;SDS011;38010;53.264;6.592;2023-10-19T04:11:15;4.15;;;2.92;;
51995;SDS011;38010;53.264;6.592;2023-10-19T04:13:48;3.65;;;2.53;;
51995;SDS011;38010;53.264;6.592;2023-10-19T04:16:24;4.57;;;2.78;;
51995;SDS011;38010;53.264;6.592;2023-10-19T04:18:50;4.47;;;2.97;;
51995;SDS011;38010;53.264;6.592;2023-10-19T04:21:16;4.15;;;2.90;;
51995;SDS011;38010;53.264;6.592;2023-10-19T04:23:42;3.72;;;2.63;;
51995;SDS011;38010;53.264;6.592;2023-10-19T04:26:08;3.67;;;2.65;;
51995;SDS011;38010;53.264;6.592;2023-10-19T04:28:40;3.78;;;2.63;;
51995;SDS011;38010;53.264;6.592;2023-10-19T04:31:10;2.92;;;2.50;;
51995;SDS011;38010;53.264;6.592;2023-10-19T04:33:39;2.53;;;2.22;;
51995;SDS011;38010;53.264;6.592;2023-10-19T04:36:08;2.95;;;2.40;;
51995;SDS011;38010;53.264;6.592;2023-10-19T04:38:36;3.38;;;2.33;;
51995;SDS011;38010;53.264;6.592;2023-10-19T04:41:03;3.63;;;2.47;;
51995;SDS011;38010;53.264;6.592;2023-10-19T04:43:32;2.90;;;2.08;;
51995;SDS011;38010;53.264;6.592;2023-10-19T04:45:58;2.42;;;2.03;;
51995;SDS011;38010;53.264;6.592;2023-10-19T04:48:25;3.13;;;2.25;;
51995;SDS011;38010;53.264;6.592;2023-10-19T04:50:51;2.45;;;2.00;;
51995;SDS011;38010;53.264;6.592;2023-10-19T04:53:17;3.15;;;2.03;;
51995;SDS011;38010;53.264;6.592;2023-10-19T04:55:43;2.72;;;2.00;;
51995;SDS011;38010;53.264;6.592;2023-10-19T04:58:11;3.08;;;2.05;;
51995;SDS011;38010;53.264;6.592;2023-10-19T05:00:37;2.22;;;1.83;;
51995;SDS011;38010;53.264;6.592;2023-10-19T05:03:03;2.83;;;2.03;;
51995;SDS011;38010;53.264;6.592;2023-10-19T05:05:29;2.85;;;2.13;;
51995;SDS011;38010;53.264;6.592;2023-10-19T05:07:55;2.55;;;1.85;;
51995;SDS011;38010;53.264;6.592;2023-10-19T05:10:21;2.17;;;1.40;;
51995;SDS011;38010;53.264;6.592;2023-10-19T05:12:47;2.47;;;1.90;;
51995;SDS011;38010;53.264;6.592;2023-10-19T05:15:13;2.40;;;1.83;;
51995;SDS011;38010;53.264;6.592;2023-10-19T05:17:40;2.63;;;1.67;;
51995;SDS011;38010;53.264;6.592;2023-10-19T05:20:07;1.90;;;1.63;;
51995;SDS011;38010;53.264;6.592;2023-10-19T05:22:33;2.47;;;1.80;;
51995;SDS011;38010;53.264;6.592;2023-10-19T05:24:59;2.17;;;1.63;;
51995;SDS011;38010;53.264;6.592;2023-10-19T05:27:26;2.50;;;1.75;;
51995;SDS011;38010;53.264;6.592;2023-10-19T05:29:52;3.25;;;1.58;;
51995;SDS011;38010;53.264;6.592;2023-10-19T05:32:18;2.47;;;1.70;;
51995;SDS011;38010;53.264;6.592;2023-10-19T05:34:44;1.20;;;1.10;;
51995;SDS011;38010;53.264;6.592;2023-10-19T05:37:10;1.52;;;1.42;;
51995;SDS011;38010;53.264;6.592;2023-10-19T05:39:37;2.42;;;1.70;;
51995;SDS011;38010;53.264;6.592;2023-10-19T05:42:03;1.80;;;1.40;;
51995;SDS011;38010;53.264;6.592;2023-10-19T05:44:31;1.60;;;1.20;;
51995;SDS011;38010;53.264;6.592;2023-10-19T05:46:57;3.28;;;1.75;;
51995;SDS011;38010;53.264;6.592;2023-10-19T05:49:27;1.73;;;1.23;;
51995;SDS011;38010;53.264;6.592;2023-10-19T05:51:53;1.92;;;1.42;;
51995;SDS011;38010;53.264;6.592;2023-10-19T05:54:19;3.50;;;1.45;;
51995;SDS011;38010;53.264;6.592;2023-10-19T05:56:49;1.65;;;1.35;;
51995;SDS011;38010;53.264;6.592;2023-10-19T05:59:15;2.40;;;1.20;;
51995;SDS011;38010;53.264;6.592;2023-10-19T06:01:41;2.60;;;1.30;;
51995;SDS011;38010;53.264;6.592;2023-10-19T06:04:11;3.47;;;1.50;;
51995;SDS011;38010;53.264;6.592;2023-10-19T06:06:37;2.00;;;1.20;;
51995;SDS011;38010;53.264;6.592;2023-10-19T06:09:07;2.47;;;1.13;;
51995;SDS011;38010;53.264;6.592;2023-10-19T06:11:36;2.25;;;1.30;;
51995;SDS011;38010;53.264;6.592;2023-10-19T06:14:07;2.78;;;1.38;;
51995;SDS011;38010;53.264;6.592;2023-10-19T06:16:33;1.10;;;1.00;;
51995;SDS011;38010;53.264;6.592;2023-10-19T06:18:59;7.55;;;1.55;;
51995;SDS011;38010;53.264;6.592;2023-10-19T06:21:26;9.35;;;1.48;;
51995;SDS011;38010;53.264;6.592;2023-10-19T06:23:52;5.75;;;1.52;;
51995;SDS011;38010;53.264;6.592;2023-10-19T06:26:19;5.22;;;1.60;;
51995;SDS011;38010;53.264;6.592;2023-10-19T06:28:45;6.82;;;1.60;;
51995;SDS011;38010;53.264;6.592;2023-10-19T06:31:11;5.60;;;1.63;;
51995;SDS011;38010;53.264;6.592;2023-10-19T06:33:39;5.95;;;1.40;;
51995;SDS011;38010;53.264;6.592;2023-10-19T06:36:06;3.90;;;1.30;;
51995;SDS011;38010;53.264;6.592;2023-10-19T06:38:32;4.18;;;1.20;;
51995;SDS011;38010;53.264;6.592;2023-10-19T06:40:59;1.65;;;0.85;;
51995;SDS011;38010;53.264;6.592;2023-10-19T06:43:28;2.55;;;1.17;;
51995;SDS011;38010;53.264;6.592;2023-10-19T06:45:55;2.03;;;1.50;;
51995;SDS011;38010;53.264;6.592;2023-10-19T06:48:22;2.03;;;1.10;;
51995;SDS011;38010;53.264;6.592;2023-10-19T06:50:48;2.58;;;1.05;;
51995;SDS011;38010;53.264;6.592;2023-10-19T06:53:15;3.10;;;1.25;;
51995;SDS011;38010;53.264;6.592;2023-10-19T06:55:41;2.58;;;0.90;;
51995;SDS011;38010;53.264;6.592;2023-10-19T06:58:08;1.98;;;0.93;;
51995;SDS011;38010;53.264;6.592;2023-10-19T07:00:34;1.67;;;1.00;;
51995;SDS011;38010;53.264;6.592;2023-10-19T07:03:07;2.05;;;1.13;;
51995;SDS011;38010;53.264;6.592;2023-10-19T07:05:33;2.00;;;1.25;;
51995;SDS011;38010;53.264;6.592;2023-10-19T07:07:59;0.95;;;0.85;;
51995;SDS011;38010;53.264;6.592;2023-10-19T07:10:27;2.50;;;0.90;;
51995;SDS011;38010;53.264;6.592;2023-10-19T07:12:54;4.43;;;0.93;;
51995;SDS011;38010;53.264;6.592;2023-10-19T07:15:21;2.65;;;1.02;;
51995;SDS011;38010;53.264;6.592;2023-10-19T07:17:49;1.98;;;0.93;;
51995;SDS011;38010;53.264;6.592;2023-10-19T07:20:17;1.52;;;0.77;;
51995;SDS011;38010;53.264;6.592;2023-10-19T07:23:02;1.70;;;0.80;;
51995;SDS011;38010;53.264;6.592;2023-10-19T07:25:50;1.00;;;0.90;;
51995;SDS011;38010;53.264;6.592;2023-10-19T07:28:19;1.23;;;0.80;;
51995;SDS011;38010;53.264;6.592;2023-10-19T07:30:47;1.73;;;0.82;;
51995;SDS011;38010;53.264;6.592;2023-10-19T07:33:14;1.48;;;0.80;;
51995;SDS011;38010;53.264;6.592;2023-10-19T07:35:44;1.10;;;0.70;;
51995;SDS011;38010;53.264;6.592;2023-10-19T07:38:15;1.45;;;0.70;;
51995;SDS011;38010;53.264;6.592;2023-10-19T07:40:42;1.30;;;0.77;;
51995;SDS011;38010;53.264;6.592;2023-10-19T07:43:08;1.63;;;0.80;;
51995;SDS011;38010;53.264;6.592;2023-10-19T07:45:35;0.95;;;0.70;;
51995;SDS011;38010;53.264;6.592;2023-10-19T07:48:02;0.68;;;0.60;;
51995;SDS011;38010;53.264;6.592;2023-10-19T07:50:40;1.30;;;0.77;;
51995;SDS011;38010;53.264;6.592;2023-10-19T07:53:07;0.93;;;0.70;;
51995;SDS011;38010;53.264;6.592;2023-10-19T07:55:34;0.68;;;0.63;;
51995;SDS011;38010;53.264;6.592;2023-10-19T07:58:01;1.55;;;0.80;;
51995;SDS011;38010;53.264;6.592;2023-10-19T08:00:31;0.50;;;0.50;;
51995;SDS011;38010;53.264;6.592;2023-10-19T08:03:00;1.95;;;0.65;;
51995;SDS011;38010;53.264;6.592;2023-10-19T08:05:26;1.13;;;0.70;;
51995;SDS011;38010;53.264;6.592;2023-10-19T08:07:53;0.82;;;0.80;;
51995;SDS011;38010;53.264;6.592;2023-10-19T08:10:19;1.00;;;0.75;;
51995;SDS011;38010;53.264;6.592;2023-10-19T08:12:47;0.90;;;0.70;;
51995;SDS011;38010;53.264;6.592;2023-10-19T08:15:13;1.02;;;0.73;;
51995;SDS011;38010;53.264;6.592;2023-10-19T08:17:44;0.82;;;0.65;;
51995;SDS011;38010;53.264;6.592;2023-10-19T08:20:11;0.85;;;0.60;;
51995;SDS011;38010;53.264;6.592;2023-10-19T08:22:52;1.27;;;0.50;;
51995;SDS011;38010;53.264;6.592;2023-10-19T08:25:19;0.65;;;0.50;;
51995;SDS011;38010;53.264;6.592;2023-10-19T08:27:46;0.77;;;0.70;;
51995;SDS011;38010;53.264;6.592;2023-10-19T08:30:16;0.52;;;0.50;;
51995;SDS011;38010;53.264;6.592;2023-10-19T08:32:43;1.65;;;0.57;;
51995;SDS011;38010;53.264;6.592;2023-10-19T08:35:13;0.70;;;0.50;;
51995;SDS011;38010;53.264;6.592;2023-10-19T08:37:39;0.75;;;0.55;;
51995;SDS011;38010;53.264;6.592;2023-10-19T08:40:09;1.00;;;0.50;;
51995;SDS011;38010;53.264;6.592;2023-10-19T08:42:43;0.63;;;0.60;;
51995;SDS011;38010;53.264;6.592;2023-10-19T08:45:13;0.52;;;0.52;;
51995;SDS011;38010;53.264;6.592;2023-10-19T08:47:48;1.08;;;0.50;;
51995;SDS011;38010;53.264;6.592;2023-10-19T08:50:21;0.60;;;0.57;;
51995;SDS011;38010;53.264;6.592;2023-10-19T08:52:49;0.50;;;0.50;;
51995;SDS011;38010;53.264;6.592;2023-10-19T08:55:18;0.85;;;0.70;;
51995;SDS011;38010;53.264;6.592;2023-10-19T08:57:44;0.90;;;0.50;;
51995;SDS011;38010;53.264;6.592;2023-10-19T09:00:11;1.15;;;0.60;;
51995;SDS011;38010;53.264;6.592;2023-10-19T09:02:37;0.90;;;0.50;;
51995;SDS011;38010;53.264;6.592;2023-10-19T09:05:06;0.77;;;0.50;;
51995;SDS011;38010;53.264;6.592;2023-10-19T09:07:32;1.13;;;0.50;;
51995;SDS011;38010;53.264;6.592;2023-10-19T09:09:59;0.80;;;0.55;;
51995;SDS011;38010;53.264;6.592;2023-10-19T09:12:26;1.05;;;0.60;;
51995;SDS011;38010;53.264;6.592;2023-10-19T09:14:52;0.60;;;0.57;;
51995;SDS011;38010;53.264;6.592;2023-10-19T09:17:27;0.80;;;0.50;;
51995;SDS011;38010;53.264;6.592;2023-10-19T09:19:54;0.95;;;0.50;;
51995;SDS011;38010;53.264;6.592;2023-10-19T09:22:21;0.63;;;0.50;;
51995;SDS011;38010;53.264;6.592;2023-10-19T09:24:48;1.17;;;0.50;;
51995;SDS011;38010;53.264;6.592;2023-10-19T09:27:17;0.63;;;0.57;;
51995;SDS011;38010;53.264;6.592;2023-10-19T09:29:43;0.90;;;0.60;;
51995;SDS011;38010;53.264;6.592;2023-10-19T09:32:10;0.50;;;0.50;;
51995;SDS011;38010;53.264;6.592;2023-10-19T09:34:38;0.98;;;0.65;;
51995;SDS011;38010;53.264;6.592;2023-10-19T09:37:08;0.52;;;0.52;;
51995;SDS011;38010;53.264;6.592;2023-10-19T09:39:35;0.50;;;0.50;;
51995;SDS011;38010;53.264;6.592;2023-10-19T09:42:02;0.50;;;0.50;;
51995;SDS011;38010;53.264;6.592;2023-10-19T09:44:32;1.13;;;0.70;;
51995;SDS011;38010;53.264;6.592;2023-10-19T09:47:01;0.60;;;0.50;;
51995;SDS011;38010;53.264;6.592;2023-10-19T09:49:28;0.47;;;0.47;;
51995;SDS011;38010;53.264;6.592;2023-10-19T09:51:55;0.55;;;0.50;;
51995;SDS011;38010;53.264;6.592;2023-10-19T09:54:23;0.65;;;0.55;;
51995;SDS011;38010;53.264;6.592;2023-10-19T09:56:54;0.47;;;0.47;;
51995;SDS011;38010;53.264;6.592;2023-10-19T09:59:33;1.17;;;0.75;;
51995;SDS011;38010;53.264;6.592;2023-10-19T10:02:10;0.85;;;0.52;;
51995;SDS011;38010;53.264;6.592;2023-10-19T10:04:47;0.60;;;0.60;;
51995;SDS011;38010;53.264;6.592;2023-10-19T10:07:14;1.00;;;0.60;;
51995;SDS011;38010;53.264;6.592;2023-10-19T10:09:43;0.73;;;0.52;;
51995;SDS011;38010;53.264;6.592;2023-10-19T10:12:19;0.70;;;0.60;;
51995;SDS011;38010;53.264;6.592;2023-10-19T10:17:22;0.57;;;0.57;;
51995;SDS011;38010;53.264;6.592;2023-10-19T10:19:48;0.85;;;0.80;;
51995;SDS011;38010;53.264;6.592;2023-10-19T10:22:14;1.13;;;0.80;;
51995;SDS011;38010;53.264;6.592;2023-10-19T10:24:41;0.50;;;0.50;;
51995;SDS011;38010;53.264;6.592;2023-10-19T10:27:07;1.15;;;0.80;;
51995;SDS011;38010;53.264;6.592;2023-10-19T10:29:34;1.30;;;0.65;;
51995;SDS011;38010;53.264;6.592;2023-10-19T10:32:01;0.70;;;0.60;;
51995;SDS011;38010;53.264;6.592;2023-10-19T10:37:03;0.67;;;0.60;;
51995;SDS011;38010;53.264;6.592;2023-10-19T10:39:30;0.80;;;0.68;;
51995;SDS011;38010;53.264;6.592;2023-10-19T10:41:57;0.50;;;0.50;;
51995;SDS011;38010;53.264;6.592;2023-10-19T10:47:09;0.60;;;0.60;;
51995;SDS011;38010;53.264;6.592;2023-10-19T10:52:24;0.77;;;0.70;;
51995;SDS011;38010;53.264;6.592;2023-10-19T10:54:51;0.90;;;0.77;;
51995;SDS011;38010;53.264;6.592;2023-10-19T10:57:18;0.93;;;0.63;;
51995;SDS011;38010;53.264;6.592;2023-10-19T10:59:44;0.50;;;0.50;;
51995;SDS011;38010;53.264;6.592;2023-10-19T11:02:17;1.35;;;0.77;;
51995;SDS011;38010;53.264;6.592;2023-10-19T11:04:44;1.80;;;0.70;;
51995;SDS011;38010;53.264;6.592;2023-10-19T11:07:20;1.50;;;0.70;;
51995;SDS011;38010;53.264;6.592;2023-10-19T11:09:46;1.30;;;0.93;;
51995;SDS011;38010;53.264;6.592;2023-10-19T11:12:13;0.77;;;0.77;;
51995;SDS011;38010;53.264;6.592;2023-10-19T11:14:53;0.75;;;0.70;;
51995;SDS011;38010;53.264;6.592;2023-10-19T11:17:19;2.53;;;1.23;;
51995;SDS011;38010;53.264;6.592;2023-10-19T11:19:49;1.30;;;0.90;;
51995;SDS011;38010;53.264;6.592;2023-10-19T11:22:15;1.55;;;1.33;;
51995;SDS011;38010;53.264;6.592;2023-10-19T11:24:41;1.40;;;0.85;;
51995;SDS011;38010;53.264;6.592;2023-10-19T11:27:08;1.63;;;1.15;;
51995;SDS011;38010;53.264;6.592;2023-10-19T11:29:37;1.83;;;1.23;;
51995;SDS011;38010;53.264;6.592;2023-10-19T11:32:03;2.20;;;1.30;;
51995;SDS011;38010;53.264;6.592;2023-10-19T11:34:31;1.60;;;1.33;;
51995;SDS011;38010;53.264;6.592;2023-10-19T11:36:59;1.20;;;1.02;;
51995;SDS011;38010;53.264;6.592;2023-10-19T11:39:27;1.50;;;1.27;;
51995;SDS011;38010;53.264;6.592;2023-10-19T11:41:53;2.35;;;1.20;;
51995;SDS011;38010;53.264;6.592;2023-10-19T11:44:20;1.70;;;1.25;;
51995;SDS011;38010;53.264;6.592;2023-10-19T11:46:47;1.10;;;1.00;;
51995;SDS011;38010;53.264;6.592;2023-10-19T11:49:13;1.95;;;1.55;;
51995;SDS011;38010;53.264;6.592;2023-10-19T11:51:39;2.30;;;1.20;;
51995;SDS011;38010;53.264;6.592;2023-10-19T11:54:06;2.63;;;1.20;;
51995;SDS011;38010;53.264;6.592;2023-10-19T11:56:32;1.85;;;1.20;;
51995;SDS011;38010;53.264;6.592;2023-10-19T11:58:59;1.45;;;1.17;;
51995;SDS011;38010;53.264;6.592;2023-10-19T12:01:27;2.28;;;1.40;;
51995;SDS011;38010;53.264;6.592;2023-10-19T12:03:54;2.33;;;1.58;;
51995;SDS011;38010;53.264;6.592;2023-10-19T12:06:20;1.17;;;1.08;;
51995;SDS011;38010;53.264;6.592;2023-10-19T12:08:48;4.82;;;1.52;;
51995;SDS011;38010;53.264;6.592;2023-10-19T12:11:15;2.13;;;1.40;;
51995;SDS011;38010;53.264;6.592;2023-10-19T12:13:45;1.73;;;1.25;;
51995;SDS011;38010;53.264;6.592;2023-10-19T12:16:12;1.30;;;1.20;;
51995;SDS011;38010;53.264;6.592;2023-10-19T12:18:38;1.60;;;1.10;;
51995;SDS011;38010;53.264;6.592;2023-10-19T12:21:04;1.48;;;1.10;;
51995;SDS011;38010;53.264;6.592;2023-10-19T12:23:36;2.42;;;1.02;;
51995;SDS011;38010;53.264;6.592;2023-10-19T12:26:04;1.92;;;1.20;;
51995;SDS011;38010;53.264;6.592;2023-10-19T12:28:36;3.60;;;1.42;;
51995;SDS011;38010;53.264;6.592;2023-10-19T12:31:03;2.58;;;1.20;;
51995;SDS011;38010;53.264;6.592;2023-10-19T12:33:30;2.30;;;1.23;;
51995;SDS011;38010;53.264;6.592;2023-10-19T12:35:57;1.80;;;1.20;;
51995;SDS011;38010;53.264;6.592;2023-10-19T12:38:24;3.95;;;1.48;;
51995;SDS011;38010;53.264;6.592;2023-10-19T12:40:51;2.28;;;1.10;;
51995;SDS011;38010;53.264;6.592;2023-10-19T12:43:17;1.98;;;1.38;;
51995;SDS011;38010;53.264;6.592;2023-10-19T12:45:44;2.25;;;1.20;;
51995;SDS011;38010;53.264;6.592;2023-10-19T12:48:15;2.72;;;1.20;;
51995;SDS011;38010;53.264;6.592;2023-10-19T12:50:42;2.95;;;1.23;;
51995;SDS011;38010;53.264;6.592;2023-10-19T12:53:08;2.08;;;1.30;;
51995;SDS011;38010;53.264;6.592;2023-10-19T12:55:34;3.65;;;1.40;;
51995;SDS011;38010;53.264;6.592;2023-10-19T12:58:03;2.22;;;1.35;;
51995;SDS011;38010;53.264;6.592;2023-10-19T13:00:33;2.28;;;1.58;;
51995;SDS011;38010;53.264;6.592;2023-10-19T13:03:06;3.40;;;1.40;;
51995;SDS011;38010;53.264;6.592;2023-10-19T13:05:33;3.38;;;1.35;;
51995;SDS011;38010;53.264;6.592;2023-10-19T13:08:00;2.42;;;1.40;;
51995;SDS011;38010;53.264;6.592;2023-10-19T13:10:29;2.70;;;1.60;;
51995;SDS011;38010;53.264;6.592;2023-10-19T13:13:02;2.25;;;1.27;;
51995;SDS011;38010;53.264;6.592;2023-10-19T13:15:35;4.13;;;1.40;;
51995;SDS011;38010;53.264;6.592;2023-10-19T13:20:28;2.22;;;1.38;;
51995;SDS011;38010;53.264;6.592;2023-10-19T13:23:07;3.05;;;1.50;;
51995;SDS011;38010;53.264;6.592;2023-10-19T13:25:37;2.20;;;1.27;;
51995;SDS011;38010;53.264;6.592;2023-10-19T13:28:15;2.88;;;1.52;;
51995;SDS011;38010;53.264;6.592;2023-10-19T13:30:43;2.60;;;1.45;;
51995;SDS011;38010;53.264;6.592;2023-10-19T13:33:09;2.85;;;1.48;;
51995;SDS011;38010;53.264;6.592;2023-10-19T13:35:36;2.55;;;1.40;;
51995;SDS011;38010;53.264;6.592;2023-10-19T13:38:04;1.75;;;1.27;;
51995;SDS011;38010;53.264;6.592;2023-10-19T13:40:31;2.55;;;1.35;;
51995;SDS011;38010;53.264;6.592;2023-10-19T13:42:57;2.70;;;1.30;;
51995;SDS011;38010;53.264;6.592;2023-10-19T13:45:24;2.85;;;1.40;;
51995;SDS011;38010;53.264;6.592;2023-10-19T13:47:50;2.38;;;1.42;;
51995;SDS011;38010;53.264;6.592;2023-10-19T13:50:23;3.78;;;1.27;;
51995;SDS011;38010;53.264;6.592;2023-10-19T13:52:50;2.00;;;1.10;;
51995;SDS011;38010;53.264;6.592;2023-10-19T13:55:17;3.38;;;1.63;;
51995;SDS011;38010;53.264;6.592;2023-10-19T13:57:45;3.05;;;1.40;;
51995;SDS011;38010;53.264;6.592;2023-10-19T14:00:12;2.95;;;1.63;;
51995;SDS011;38010;53.264;6.592;2023-10-19T14:02:45;3.80;;;1.50;;
51995;SDS011;38010;53.264;6.592;2023-10-19T14:05:14;3.13;;;1.50;;
51995;SDS011;38010;53.264;6.592;2023-10-19T14:07:40;3.28;;;1.55;;
51995;SDS011;38010;53.264;6.592;2023-10-19T14:10:08;2.70;;;1.17;;
51995;SDS011;38010;53.264;6.592;2023-10-19T14:12:41;3.88;;;1.40;;
51995;SDS011;38010;53.264;6.592;2023-10-19T14:15:09;2.63;;;1.38;;
51995;SDS011;38010;53.264;6.592;2023-10-19T14:17:37;3.60;;;1.15;;
51995;SDS011;38010;53.264;6.592;2023-10-19T14:20:03;2.90;;;1.63;;
51995;SDS011;38010;53.264;6.592;2023-10-19T14:22:30;2.97;;;1.63;;
51995;SDS011;38010;53.264;6.592;2023-10-19T14:25:00;2.58;;;1.50;;
51995;SDS011;38010;53.264;6.592;2023-10-19T14:27:26;3.22;;;1.45;;
51995;SDS011;38010;53.264;6.592;2023-10-19T14:29:53;3.35;;;1.77;;
51995;SDS011;38010;53.264;6.592;2023-10-19T14:32:19;2.65;;;1.27;;
51995;SDS011;38010;53.264;6.592;2023-10-19T14:34:45;4.22;;;1.60;;
51995;SDS011;38010;53.264;6.592;2023-10-19T14:37:11;2.05;;;1.20;;
51995;SDS011;38010;53.264;6.592;2023-10-19T14:39:37;3.97;;;1.70;;
51995;SDS011;38010;53.264;6.592;2023-10-19T14:42:04;2.13;;;1.50;;
51995;SDS011;38010;53.264;6.592;2023-10-19T14:44:30;3.17;;;1.50;;
51995;SDS011;38010;53.264;6.592;2023-10-19T14:46:56;2.00;;;1.40;;
51995;SDS011;38010;53.264;6.592;2023-10-19T14:49:22;1.75;;;1.25;;
51995;SDS011;38010;53.264;6.592;2023-10-19T14:51:48;3.75;;;1.40;;
51995;SDS011;38010;53.264;6.592;2023-10-19T14:54:14;2.47;;;1.40;;
51995;SDS011;38010;53.264;6.592;2023-10-19T14:56:41;2.13;;;1.40;;
51995;SDS011;38010;53.264;6.592;2023-10-19T14:59:07;4.80;;;1.92;;
51995;SDS011;38010;53.264;6.592;2023-10-19T15:01:33;2.90;;;1.73;;
51995;SDS011;38010;53.264;6.592;2023-10-19T15:04:01;3.00;;;1.38;;
51995;SDS011;38010;53.264;6.592;2023-10-19T15:06:27;3.10;;;1.40;;
51995;SDS011;38010;53.264;6.592;2023-10-19T15:08:54;1.98;;;1.40;;